KJKL

Julian Carroll Airport

Jackson, Kentucky, USA
METAR KJKL 250453Z AUTO 00000KT 10SM FEW060 22/14 A3010 RMK AO2 SLP179 T02220144 402830144
Observed Flight Rules
May-25 @ 04:53 UTC (31 minutes ago) Visual Flight Rules
Visibility Clouds
10 miles
  • Few at 6,000' AGL
Temperatures Readings
Current 22°C / 72°F
Dewpoint 14°C / 57°F
Humidity 61%
Altimeter 30.1" Hg
Pressure 1017.9 hPa
Elevation 416
METAR KJKL 250453Z AUTO 00000KT 10SM FEW060 22/14 A3010 RMK AO2 SLP179 T02220144 402830144
Observed Flight Rules
May-25 @ 04:53 UTC
(31 minutes ago)
VFR
Clouds
  • Few at 6,000' AGL
Temperature Dewpoint
22°C / 72°F 14°C / 57°F
Humidity Altimeter Pressure
61% 30.1" Hg 1017.9 hPa